Time;durP1;ratioP1;P1;durP2;ratioP2;P2;SDS_P1;SDS_P2;PMS_P1;PMS_P2;Temp;Humidity;BMP_temperature;BMP_pressure;BME280_temperature;BME280_humidity;BME280_pressure;Samples;Min_cycle;Max_cycle;Signal;HPM_P1;HPM_P2
2021/04/26 00:01:22;;;;;;;0.77;0.77;;;17.50;76.70;;;;;;5068359;28;20491;-70
2021/04/26 00:03:49;;;;;;;0.93;0.90;;;17.40;76.90;;;;;;5069100;28;20096;-70
2021/04/26 00:06:15;;;;;;;1.23;0.90;;;17.40;77.30;;;;;;5069052;28;20030;-69
2021/04/26 00:08:40;;;;;;;0.93;0.73;;;17.40;77.90;;;;;;5048884;28;20398;-70
2021/04/26 00:11:06;;;;;;;0.80;0.80;;;17.40;78.10;;;;;;5059848;28;20090;-71
2021/04/26 00:13:32;;;;;;;1.20;0.90;;;17.30;77.30;;;;;;5068184;28;20048;-70
2021/04/26 00:15:57;;;;;;;1.77;1.00;;;17.20;77.80;;;;;;5068091;28;20518;-70
2021/04/26 00:18:23;;;;;;;1.58;1.02;;;17.40;79.00;;;;;;5051254;28;20029;-70
2021/04/26 00:20:49;;;;;;;1.10;1.00;;;17.40;77.80;;;;;;5045771;28;20049;-70
2021/04/26 00:23:15;;;;;;;1.00;0.90;;;17.50;78.60;;;;;;5047424;28;20021;-70
2021/04/26 00:25:40;;;;;;;1.13;1.00;;;17.50;77.90;;;;;;5046647;28;20116;-70
2021/04/26 00:28:06;;;;;;;1.42;1.13;;;17.50;79.80;;;;;;5046766;28;20021;-70
2021/04/26 00:30:32;;;;;;;2.83;0.93;;;17.40;79.90;;;;;;5046492;28;20037;-69
2021/04/26 00:32:59;;;;;;;0.88;0.80;;;17.50;79.20;;;;;;5046810;28;20446;-69
2021/04/26 00:35:27;;;;;;;0.80;0.80;;;17.40;78.20;;;;;;5046337;28;20079;-70
2021/04/26 00:37:54;;;;;;;1.00;0.90;;;17.40;79.60;;;;;;5046707;28;20032;-70
2021/04/26 00:40:21;;;;;;;0.90;0.80;;;17.10;77.80;;;;;;5046334;28;20112;-70
2021/04/26 00:42:47;;;;;;;1.63;1.10;;;17.20;78.30;;;;;;5047110;28;20025;-70
2021/04/26 00:45:16;;;;;;;0.80;0.80;;;17.30;78.30;;;;;;5046524;28;20028;-70
2021/04/26 00:47:44;;;;;;;1.02;0.80;;;17.30;77.80;;;;;;5046176;28;20040;-70
2021/04/26 00:50:13;;;;;;;1.00;0.77;;;17.30;78.10;;;;;;5045130;28;20025;-70
2021/04/26 00:52:39;;;;;;;1.67;1.00;;;17.40;78.20;;;;;;5057564;28;20028;-70
2021/04/26 00:55:06;;;;;;;0.90;0.90;;;17.40;78.80;;;;;;5066459;28;20033;-69
2021/04/26 00:57:32;;;;;;;0.70;0.70;;;17.30;78.20;;;;;;5058958;28;20021;-69
2021/04/26 00:59:58;;;;;;;1.90;1.00;;;17.20;78.10;;;;;;5044875;28;20052;-69
2021/04/26 01:02:25;;;;;;;0.85;0.82;;;17.20;78.80;;;;;;5045858;28;20060;-70
2021/04/26 01:04:55;;;;;;;0.90;0.90;;;17.20;78.60;;;;;;5045806;28;20515;-70
2021/04/26 01:07:21;;;;;;;1.42;1.00;;;17.30;78.70;;;;;;5050237;28;20027;-70
2021/04/26 01:09:47;;;;;;;1.08;0.90;;;17.30;78.90;;;;;;5065810;28;20491;-70
2021/04/26 01:13:00;;;;;;;2.78;0.90;;;17.30;79.80;;;;;;5065989;28;20446;-69
2021/04/26 01:15:58;;;;;;;0.90;0.70;;;17.30;80.50;;;;;;5056209;28;20048;-70
2021/04/26 01:18:48;;;;;;;1.35;1.23;;;17.30;80.50;;;;;;5061462;28;20143;-70
2021/04/26 01:21:47;;;;;;;1.80;1.05;;;17.10;81.60;;;;;;5065741;28;20486;-70
2021/04/26 01:24:35;;;;;;;1.65;1.00;;;17.00;82.00;;;;;;5065842;28;20025;-69
2021/04/26 01:27:23;;;;;;;2.42;1.13;;;17.00;82.10;;;;;;5061712;28;20021;-70
2021/04/26 01:30:07;;;;;;;0.95;0.90;;;17.10;82.40;;;;;;5046316;28;20032;-69
2021/04/26 01:32:46;;;;;;;1.17;0.90;;;17.00;83.50;;;;;;5044236;28;20025;-69
2021/04/26 01:35:15;;;;;;;1.05;0.90;;;17.00;82.40;;;;;;5045498;28;20021;-69
2021/04/26 01:37:42;;;;;;;0.95;0.80;;;17.00;82.60;;;;;;5053758;28;20485;-69
2021/04/26 01:40:11;;;;;;;1.05;0.85;;;16.90;82.30;;;;;;5065823;28;20032;-69
2021/04/26 01:42:40;;;;;;;1.42;1.00;;;16.80;82.10;;;;;;5065175;28;20108;-69
2021/04/26 01:45:10;;;;;;;1.10;0.98;;;16.80;82.80;;;;;;5065581;28;20066;-68
2021/04/26 01:47:39;;;;;;;0.70;0.70;;;16.80;84.00;;;;;;5056668;28;20025;-68
2021/04/26 01:50:09;;;;;;;0.80;0.80;;;16.90;82.90;;;;;;5045295;28;20540;-68
2021/04/26 01:52:35;;;;;;;1.10;0.80;;;16.80;87.00;;;;;;5045211;28;20507;-68
2021/04/26 01:55:02;;;;;;;0.93;0.93;;;16.80;83.60;;;;;;5045378;28;20049;-68
2021/04/26 01:57:30;;;;;;;1.35;0.70;;;16.70;84.50;;;;;;5044497;28;20033;-68
2021/04/26 01:59:59;;;;;;;0.88;0.80;;;16.80;84.60;;;;;;5045445;28;20017;-67
2021/04/26 02:02:26;;;;;;;0.77;0.77;;;16.80;85.40;;;;;;5044908;28;20028;-68
2021/04/26 02:04:53;;;;;;;0.82;0.73;;;16.70;83.70;;;;;;5045200;28;20025;-69
2021/04/26 02:07:20;;;;;;;2.05;0.88;;;16.70;83.40;;;;;;5052243;28;20029;-68
2021/04/26 02:09:47;;;;;;;0.80;0.80;;;16.60;83.70;;;;;;5065353;28;20036;-69
2021/04/26 02:12:15;;;;;;;1.00;0.80;;;16.60;85.40;;;;;;5065120;28;20059;-68
2021/04/26 02:14:42;;;;;;;1.00;0.70;;;16.60;86.70;;;;;;5065167;28;20712;-68
2021/04/26 02:17:08;;;;;;;1.05;0.90;;;16.50;86.80;;;;;;5063910;28;20450;-68
2021/04/26 02:19:35;;;;;;;1.83;0.90;;;16.60;88.10;;;;;;5064929;28;20107;-68
2021/04/26 02:22:01;;;;;;;1.30;0.85;;;16.70;88.30;;;;;;5063781;28;20060;-68
2021/04/26 02:24:27;;;;;;;0.93;0.80;;;16.60;89.40;;;;;;5068556;28;20038;-69
2021/04/26 02:26:52;;;;;;;1.10;0.82;;;16.60;88.10;;;;;;5069360;28;20527;-68
2021/04/26 02:29:18;;;;;;;1.95;0.93;;;16.60;88.20;;;;;;5069874;28;20023;-67
2021/04/26 02:31:49;;;;;;;1.23;0.70;;;16.60;89.60;;;;;;5068877;28;20111;-68
2021/04/26 02:34:38;;;;;;;1.13;1.02;;;16.50;89.10;;;;;;5069815;28;20659;-68
2021/04/26 02:37:16;;;;;;;1.05;0.90;;;16.50;90.80;;;;;;5069168;28;20115;-68
2021/04/26 02:39:44;;;;;;;1.08;0.93;;;16.40;90.50;;;;;;5068550;28;20482;-68
2021/04/26 02:42:12;;;;;;;1.48;1.08;;;16.40;91.30;;;;;;5069379;28;20043;-68
2021/04/26 02:44:39;;;;;;;2.53;1.02;;;16.40;91.50;;;;;;5068529;28;20035;-68
2021/04/26 02:47:12;;;;;;;2.53;1.00;;;16.40;92.40;;;;;;5068868;28;20039;-68
2021/04/26 02:49:39;;;;;;;0.80;0.80;;;16.30;92.90;;;;;;5068343;28;20020;-68
2021/04/26 02:52:07;;;;;;;1.20;1.02;;;16.30;92.70;;;;;;5068699;28;20020;-68
2021/04/26 02:54:35;;;;;;;1.10;1.00;;;16.20;92.80;;;;;;5068826;28;20039;-67
2021/04/26 02:57:01;;;;;;;1.10;1.00;;;16.30;92.60;;;;;;5068699;28;20465;-67
2021/04/26 02:59:28;;;;;;;1.10;1.00;;;16.20;92.20;;;;;;5068214;28;20035;-67
2021/04/26 03:01:54;;;;;;;1.27;1.10;;;16.20;92.10;;;;;;5068453;28;20139;-67
2021/04/26 03:04:22;;;;;;;1.20;1.10;;;16.20;92.60;;;;;;5068168;28;20048;-67
2021/04/26 03:06:51;;;;;;;1.23;1.10;;;16.20;92.70;;;;;;5069196;28;20031;-67
2021/04/26 03:09:18;;;;;;;1.50;1.15;;;16.30;92.00;;;;;;5068584;28;20043;-67
2021/04/26 03:11:45;;;;;;;1.50;1.00;;;16.20;92.40;;;;;;5068336;28;20492;-68
2021/04/26 03:14:12;;;;;;;1.38;1.08;;;16.20;92.40;;;;;;5068436;28;20402;-68
2021/04/26 03:16:40;;;;;;;1.08;0.98;;;16.20;92.50;;;;;;5067932;28;20024;-68
2021/04/26 03:19:08;;;;;;;1.38;1.13;;;16.10;92.70;;;;;;5068057;28;20028;-68
2021/04/26 03:21:35;;;;;;;1.92;1.02;;;16.00;92.00;;;;;;5067943;28;20021;-68
2021/04/26 03:24:03;;;;;;;2.22;1.17;;;15.90;91.90;;;;;;5068320;28;20088;-69
2021/04/26 03:26:31;;;;;;;1.35;1.10;;;15.70;92.50;;;;;;5067921;28;20368;-68
2021/04/26 03:28:58;;;;;;;1.35;1.10;;;15.80;92.90;;;;;;5067941;28;20067;-67
2021/04/26 03:31:26;;;;;;;1.33;1.23;;;15.90;93.40;;;;;;5067942;28;20414;-67
2021/04/26 03:33:53;;;;;;;1.25;1.10;;;15.60;93.50;;;;;;5067476;28;20036;-68
2021/04/26 03:36:22;;;;;;;1.75;1.30;;;15.40;93.60;;;;;;5068508;28;20025;-67
2021/04/26 03:38:50;;;;;;;1.25;1.15;;;15.50;94.20;;;;;;5067140;28;20115;-67
2021/04/26 03:41:17;;;;;;;1.13;1.02;;;15.70;94.20;;;;;;5068041;28;20012;-67
2021/04/26 03:43:45;;;;;;;1.65;1.10;;;15.90;94.60;;;;;;5055967;28;20020;-67
2021/04/26 03:46:12;;;;;;;3.25;1.38;;;15.90;94.10;;;;;;5068377;28;20039;-67
2021/04/26 03:48:38;;;;;;;1.63;0.85;;;15.90;94.00;;;;;;5068751;28;20028;-68
2021/04/26 03:51:05;;;;;;;3.88;1.20;;;15.80;93.90;;;;;;5075820;28;20039;-67
2021/04/26 03:53:30;;;;;;;1.10;0.90;;;15.90;93.60;;;;;;5068624;28;20100;-67
2021/04/26 03:55:56;;;;;;;1.60;0.90;;;15.90;93.50;;;;;;5068568;28;20558;-67
2021/04/26 03:58:22;;;;;;;5.15;1.42;;;16.00;93.90;;;;;;5066976;28;20104;-67
2021/04/26 04:00:48;;;;;;;2.80;1.20;;;16.00;93.90;;;;;;5067957;28;20136;-67
2021/04/26 04:03:14;;;;;;;1.33;1.00;;;16.10;94.10;;;;;;5067293;28;20035;-67
2021/04/26 04:05:42;;;;;;;1.15;1.05;;;16.10;93.20;;;;;;5066997;28;20028;-67
2021/04/26 04:08:08;;;;;;;1.23;1.00;;;16.10;93.20;;;;;;5065809;28;20020;-68
2021/04/26 04:10:34;;;;;;;1.73;1.13;;;16.10;93.40;;;;;;5061371;28;20090;-67
2021/04/26 04:13:00;;;;;;;1.63;1.17;;;16.10;92.80;;;;;;5064633;28;20435;-67
2021/04/26 04:15:26;;;;;;;2.88;1.10;;;16.20;92.70;;;;;;5065659;28;20064;-68
2021/04/26 04:17:53;;;;;;;1.30;1.20;;;16.20;92.30;;;;;;5066667;28;20063;-67
2021/04/26 04:20:19;;;;;;;1.60;1.10;;;16.20;92.20;;;;;;5067684;28;20526;-67
2021/04/26 04:22:46;;;;;;;1.08;0.98;;;16.10;93.20;;;;;;5067331;28;20406;-67
2021/04/26 04:25:12;;;;;;;0.90;0.90;;;16.00;93.90;;;;;;5066642;28;20032;-67
2021/04/26 04:27:38;;;;;;;1.33;0.95;;;16.10;93.60;;;;;;5066269;28;20029;-66
2021/04/26 04:30:07;;;;;;;1.50;1.13;;;16.10;93.70;;;;;;5066432;28;20054;-66
2021/04/26 04:32:33;;;;;;;1.52;0.98;;;16.00;94.60;;;;;;5066185;28;20050;-67
2021/04/26 04:34:59;;;;;;;1.40;1.00;;;16.10;94.60;;;;;;5066533;28;20495;-66
2021/04/26 04:37:25;;;;;;;1.85;1.20;;;15.90;95.20;;;;;;5066711;28;20402;-65
2021/04/26 04:39:51;;;;;;;1.35;0.93;;;15.70;96.50;;;;;;5066444;28;20024;-66
2021/04/26 04:42:17;;;;;;;1.10;1.00;;;15.70;96.60;;;;;;5066754;28;20025;-65
2021/04/26 04:44:43;;;;;;;2.60;1.30;;;15.50;96.90;;;;;;5065535;28;20030;-66
2021/04/26 04:47:09;;;;;;;1.30;1.17;;;15.40;98.10;;;;;;5066442;28;20858;-66
2021/04/26 04:49:35;;;;;;;0.90;0.90;;;15.40;98.60;;;;;;5066200;28;20068;-64
2021/04/26 04:52:00;;;;;;;1.23;1.10;;;15.40;99.10;;;;;;5066407;28;20112;-63
2021/04/26 04:54:26;;;;;;;1.48;1.30;;;15.40;99.10;;;;;;5065964;28;20020;-63
2021/04/26 04:56:53;;;;;;;2.30;1.30;;;15.30;99.00;;;;;;5066029;28;20120;-63
2021/04/26 04:59:19;;;;;;;1.40;1.30;;;15.20;99.20;;;;;;5066910;28;20506;-57
2021/04/26 05:01:46;;;;;;;1.25;0.98;;;15.20;99.90;;;;;;5066472;28;20048;-57
2021/04/26 05:04:13;;;;;;;1.55;1.00;;;15.30;99.80;;;;;;5066406;28;20450;-57
2021/04/26 05:06:38;;;;;;;1.15;1.05;;;15.40;99.70;;;;;;5065659;28;20025;-57
2021/04/26 05:09:06;;;;;;;1.27;1.02;;;15.40;99.90;;;;;;5065991;28;20525;-57
2021/04/26 05:11:32;;;;;;;1.75;1.05;;;15.40;99.90;;;;;;5065121;28;20111;-57
2021/04/26 05:14:00;;;;;;;0.90;0.90;;;15.40;99.90;;;;;;5066127;28;20387;-57
2021/04/26 05:16:31;;;;;;;1.70;1.10;;;15.40;99.90;;;;;;5065703;28;20036;-57
2021/04/26 05:18:59;;;;;;;1.63;1.35;;;15.40;99.90;;;;;;5065838;28;20056;-58
2021/04/26 05:21:26;;;;;;;1.67;1.33;;;15.40;99.90;;;;;;5065610;28;20025;-59
2021/04/26 05:23:54;;;;;;;1.90;1.20;;;15.30;99.90;;;;;;5065880;28;20027;-59
2021/04/26 05:26:20;;;;;;;1.42;1.25;;;15.30;99.90;;;;;;5066183;28;20020;-59
2021/04/26 05:28:47;;;;;;;1.10;1.00;;;15.30;99.90;;;;;;5066530;28;20100;-59
2021/04/26 05:31:13;;;;;;;1.90;1.50;;;15.20;99.90;;;;;;5065793;28;20024;-59
2021/04/26 05:33:39;;;;;;;3.30;1.60;;;15.20;99.90;;;;;;5065143;28;20035;-59
2021/04/26 05:36:06;;;;;;;2.47;1.67;;;15.30;99.90;;;;;;5065888;28;20036;-59
2021/04/26 05:38:33;;;;;;;1.60;1.40;;;15.20;99.90;;;;;;5065397;28;20016;-59
2021/04/26 05:40:59;;;;;;;2.28;1.58;;;15.20;99.90;;;;;;5065842;28;20028;-59
2021/04/26 05:43:25;;;;;;;1.77;1.67;;;15.20;99.90;;;;;;5065344;28;20505;-59
2021/04/26 05:45:51;;;;;;;2.15;1.55;;;15.20;99.90;;;;;;5065456;28;20105;-59
2021/04/26 05:48:16;;;;;;;1.77;1.60;;;15.10;99.90;;;;;;5066313;28;20032;-58
2021/04/26 05:50:43;;;;;;;1.58;1.40;;;15.20;99.90;;;;;;5065204;28;20025;-59
2021/04/26 05:53:09;;;;;;;1.95;1.60;;;15.30;99.90;;;;;;5065648;28;20029;-59
2021/04/26 05:55:34;;;;;;;2.20;1.60;;;15.30;99.90;;;;;;5064367;28;20035;-59
2021/04/26 05:58:01;;;;;;;2.08;1.55;;;15.30;99.90;;;;;;5065402;28;20398;-59
2021/04/26 06:00:28;;;;;;;1.70;1.60;;;15.30;99.90;;;;;;5065237;28;20461;-58
2021/04/26 06:02:54;;;;;;;2.50;1.73;;;15.10;99.90;;;;;;5065022;28;20079;-58
2021/04/26 06:05:19;;;;;;;1.77;1.40;;;14.70;99.90;;;;;;5065258;28;20025;-59
2021/04/26 06:07:45;;;;;;;2.03;1.50;;;15.00;99.90;;;;;;5065944;28;20024;-58
2021/04/26 06:10:12;;;;;;;2.65;1.50;;;14.90;99.90;;;;;;5064897;28;20025;-59
2021/04/26 06:12:39;;;;;;;2.38;1.50;;;15.00;99.90;;;;;;5063579;28;20029;-58
2021/04/26 06:15:06;;;;;;;2.15;1.70;;;15.20;99.90;;;;;;5063984;28;20025;-58
2021/04/26 06:17:31;;;;;;;1.90;1.65;;;15.30;99.90;;;;;;5066023;28;20437;-58
2021/04/26 06:19:57;;;;;;;2.45;1.50;;;15.40;99.90;;;;;;5066692;28;20036;-58
2021/04/26 06:22:23;;;;;;;2.78;1.60;;;15.40;99.90;;;;;;5066381;28;20024;-58
2021/04/26 06:24:49;;;;;;;1.92;1.60;;;15.40;99.90;;;;;;5067257;28;20082;-58
2021/04/26 06:27:14;;;;;;;1.92;1.60;;;15.30;99.90;;;;;;5066657;28;20025;-58
2021/04/26 06:29:40;;;;;;;1.50;1.40;;;15.40;99.90;;;;;;5066280;28;20075;-58
2021/04/26 06:32:06;;;;;;;2.30;1.50;;;15.50;99.90;;;;;;5066287;28;20108;-58
2021/04/26 06:34:31;;;;;;;2.00;1.60;;;15.40;99.90;;;;;;5064078;28;20063;-58
2021/04/26 06:36:57;;;;;;;1.40;1.30;;;15.20;99.90;;;;;;5064655;28;20040;-58
2021/04/26 06:39:24;;;;;;;2.25;1.73;;;15.20;99.90;;;;;;5064739;28;20503;-58
2021/04/26 06:41:50;;;;;;;1.27;1.10;;;15.30;99.90;;;;;;5065230;28;20025;-58
2021/04/26 06:44:15;;;;;;;1.65;1.50;;;15.30;99.90;;;;;;5065374;28;20028;-58
2021/04/26 06:46:42;;;;;;;2.22;1.63;;;15.50;99.90;;;;;;5060693;28;20097;-58
2021/04/26 06:49:07;;;;;;;3.55;1.80;;;15.50;99.90;;;;;;5065070;28;20027;-58
2021/04/26 06:51:33;;;;;;;1.80;1.50;;;15.50;99.90;;;;;;5064719;28;20024;-59
2021/04/26 06:53:59;;;;;;;1.73;1.58;;;15.40;99.90;;;;;;5064994;28;20029;-58
2021/04/26 06:56:25;;;;;;;2.28;1.50;;;15.30;99.90;;;;;;5064738;28;20086;-57
2021/04/26 06:58:51;;;;;;;3.28;1.58;;;15.50;99.90;;;;;;5065046;28;20390;-58
2021/04/26 07:01:16;;;;;;;1.67;1.58;;;15.50;99.90;;;;;;5065383;28;20099;-58
2021/04/26 07:03:43;;;;;;;1.95;1.65;;;15.50;99.90;;;;;;5064554;28;20024;-58
2021/04/26 07:06:08;;;;;;;1.63;1.52;;;15.60;99.90;;;;;;5064849;28;20474;-58
2021/04/26 07:08:34;;;;;;;2.20;1.80;;;15.60;99.90;;;;;;5067671;28;20107;-58
2021/04/26 07:11:00;;;;;;;2.35;2.10;;;15.60;99.90;;;;;;5067897;28;20388;-57
2021/04/26 07:13:26;;;;;;;2.20;1.95;;;15.60;99.90;;;;;;5067855;28;20025;-57
2021/04/26 07:15:51;;;;;;;1.67;1.58;;;15.70;99.90;;;;;;5068114;28;20025;-58
2021/04/26 07:18:17;;;;;;;2.17;1.90;;;15.70;99.90;;;;;;5068785;28;20082;-57
2021/04/26 07:20:44;;;;;;;2.58;2.08;;;15.70;99.90;;;;;;5067880;28;20024;-57
2021/04/26 07:23:09;;;;;;;2.58;2.13;;;15.70;99.90;;;;;;5067700;28;20021;-57
2021/04/26 07:25:36;;;;;;;2.10;1.90;;;15.80;99.90;;;;;;5068057;28;20074;-57
2021/04/26 07:28:02;;;;;;;2.42;1.85;;;15.70;99.90;;;;;;5068415;28;20017;-57
2021/04/26 07:30:27;;;;;;;2.03;1.73;;;15.70;99.90;;;;;;5067454;28;20140;-57
2021/04/26 07:32:53;;;;;;;1.70;1.60;;;15.80;99.90;;;;;;5068054;28;20062;-57
2021/04/26 07:35:20;;;;;;;2.60;2.13;;;15.80;99.90;;;;;;5068306;28;20028;-57
2021/04/26 07:37:46;;;;;;;2.25;1.90;;;15.80;99.90;;;;;;5068644;28;20028;-57
2021/04/26 07:40:14;;;;;;;2.25;1.88;;;15.80;99.90;;;;;;5067756;28;20059;-57
2021/04/26 07:42:41;;;;;;;2.13;1.88;;;15.80;99.90;;;;;;5067374;28;20115;-58
2021/04/26 07:45:08;;;;;;;2.70;1.67;;;15.90;99.90;;;;;;5067851;28;20071;-57
2021/04/26 07:47:35;;;;;;;2.85;1.83;;;15.90;99.90;;;;;;5067399;28;20070;-57
2021/04/26 07:50:04;;;;;;;2.13;1.80;;;15.80;99.90;;;;;;5067428;28;20082;-57
2021/04/26 07:52:29;;;;;;;2.47;2.08;;;15.70;99.90;;;;;;5067061;28;20039;-57
2021/04/26 07:54:56;;;;;;;3.63;2.08;;;15.60;99.90;;;;;;5067524;28;20032;-57
2021/04/26 07:57:23;;;;;;;3.40;2.10;;;15.50;99.90;;;;;;5067166;28;20035;-57
2021/04/26 07:59:49;;;;;;;2.90;1.90;;;15.60;99.90;;;;;;5064902;28;20083;-57
2021/04/26 08:02:16;;;;;;;3.25;1.95;;;15.70;99.90;;;;;;5067831;28;20707;-57
2021/04/26 08:04:41;;;;;;;2.13;1.77;;;15.60;99.90;;;;;;5063285;28;20013;-57
2021/04/26 08:07:07;;;;;;;2.47;1.65;;;15.60;99.90;;;;;;5067247;28;20040;-57
2021/04/26 08:09:33;;;;;;;2.00;1.80;;;15.70;99.90;;;;;;5066870;28;20063;-57
2021/04/26 08:11:58;;;;;;;2.65;2.13;;;15.80;99.90;;;;;;5066500;28;20491;-57
2021/04/26 08:14:25;;;;;;;1.55;1.45;;;16.00;99.90;;;;;;5066726;28;20028;-58
2021/04/26 08:16:51;;;;;;;1.98;1.77;;;15.80;99.90;;;;;;5067086;28;20131;-58
2021/04/26 08:19:17;;;;;;;2.22;1.70;;;15.70;99.90;;;;;;5066384;28;20590;-57
2021/04/26 08:21:43;;;;;;;1.92;1.48;;;15.70;99.90;;;;;;5066485;28;20415;-57
2021/04/26 08:24:08;;;;;;;2.33;1.90;;;15.90;99.90;;;;;;5066766;28;20021;-58
2021/04/26 08:26:34;;;;;;;1.95;1.77;;;16.00;99.90;;;;;;5066533;28;20035;-58
2021/04/26 08:29:00;;;;;;;3.22;2.20;;;16.10;99.90;;;;;;5066849;28;20029;-58
2021/04/26 08:31:25;;;;;;;3.22;1.98;;;16.10;99.90;;;;;;5066606;28;20035;-58
2021/04/26 08:33:51;;;;;;;2.70;2.25;;;16.20;99.90;;;;;;5066779;28;20020;-58
2021/04/26 08:36:16;;;;;;;2.60;2.17;;;16.20;99.90;;;;;;5067405;28;20020;-57
2021/04/26 08:38:42;;;;;;;2.08;1.90;;;16.20;99.90;;;;;;5066778;28;20036;-58
2021/04/26 08:41:15;;;;;;;3.33;2.50;;;16.20;99.90;;;;;;5066518;28;20020;-58
2021/04/26 08:43:45;;;;;;;3.25;2.35;;;16.30;99.90;;;;;;5066139;28;20020;-58
2021/04/26 08:46:11;;;;;;;3.97;2.28;;;16.30;99.90;;;;;;5066396;28;20051;-57
2021/04/26 08:48:38;;;;;;;3.78;1.95;;;16.20;99.90;;;;;;5066146;28;20142;-57
2021/04/26 08:51:05;;;;;;;3.88;2.60;;;15.90;99.90;;;;;;5065481;28;20097;-57
2021/04/26 08:53:32;;;;;;;3.30;2.45;;;15.80;99.90;;;;;;5063419;28;20051;-58
2021/04/26 08:55:57;;;;;;;2.78;2.17;;;15.90;99.90;;;;;;5065718;28;20103;-59
2021/04/26 08:58:26;;;;;;;4.18;2.17;;;16.10;99.90;;;;;;5065090;28;20055;-59
2021/04/26 09:00:52;;;;;;;2.85;1.83;;;15.90;99.90;;;;;;5064988;28;20054;-59
2021/04/26 09:03:17;;;;;;;2.10;1.77;;;16.30;99.90;;;;;;5065428;28;20487;-58
2021/04/26 09:05:46;;;;;;;3.60;2.42;;;16.30;99.90;;;;;;5064745;28;20111;-58
2021/04/26 09:08:18;;;;;;;2.30;1.95;;;16.10;99.90;;;;;;5065176;28;20022;-58
2021/04/26 09:10:47;;;;;;;3.08;2.25;;;16.30;99.90;;;;;;5064786;28;20094;-58
2021/04/26 09:13:45;;;;;;;3.47;2.13;;;15.90;99.90;;;;;;5065218;28;20113;-58
2021/04/26 09:16:22;;;;;;;6.65;3.05;;;16.00;99.90;;;;;;5022105;28;20546;-58
2021/04/26 09:19:00;;;;;;;4.32;2.70;;;16.00;99.90;;;;;;5060691;28;20025;-58
2021/04/26 09:21:29;;;;;;;4.68;2.08;;;16.00;99.90;;;;;;5045047;28;20028;-59
2021/04/26 09:24:24;;;;;;;3.28;2.05;;;16.00;99.90;;;;;;5052335;28;20066;-58
2021/04/26 09:26:52;;;;;;;2.70;1.88;;;16.10;99.90;;;;;;5064222;28;20510;-59
2021/04/26 09:29:23;;;;;;;2.08;1.88;;;16.40;99.90;;;;;;5065554;28;20107;-59
2021/04/26 09:32:18;;;;;;;2.92;1.60;;;16.50;99.90;;;;;;5065466;28;20032;-58
2021/04/26 09:34:48;;;;;;;2.30;2.00;;;16.80;99.90;;;;;;5060360;28;20036;-58
2021/04/26 09:37:22;;;;;;;3.05;1.90;;;16.70;99.90;;;;;;5065028;28;20024;-58
2021/04/26 09:40:12;;;;;;;2.53;1.80;;;16.80;99.90;;;;;;5065622;28;20028;-58
2021/04/26 09:42:52;;;;;;;3.35;2.13;;;16.50;99.90;;;;;;5064722;28;20021;-58
2021/04/26 09:45:24;;;;;;;1.73;1.50;;;16.80;99.90;;;;;;5065194;28;20561;-58
2021/04/26 09:48:07;;;;;;;2.35;1.95;;;16.80;99.90;;;;;;5065061;28;20111;-59
2021/04/26 09:50:33;;;;;;;2.53;1.50;;;17.10;99.90;;;;;;5064449;28;20032;-58
2021/04/26 09:53:07;;;;;;;2.78;1.73;;;17.20;99.90;;;;;;5064916;28;20518;-58
2021/04/26 09:55:33;;;;;;;2.40;1.75;;;17.30;99.90;;;;;;5064739;28;20016;-59
2021/04/26 09:58:01;;;;;;;2.72;2.13;;;17.50;99.90;;;;;;5064997;28;20514;-59
2021/04/26 10:00:27;;;;;;;2.40;1.83;;;17.50;99.90;;;;;;5064329;28;20047;-58
2021/04/26 10:02:53;;;;;;;2.10;1.48;;;17.30;99.90;;;;;;5064616;28;20028;-59
2021/04/26 10:05:19;;;;;;;2.03;1.60;;;17.40;99.90;;;;;;5065422;28;20036;-58
2021/04/26 10:07:48;;;;;;;3.85;1.60;;;17.20;99.90;;;;;;5065346;28;20528;-59
2021/04/26 10:10:15;;;;;;;2.88;1.95;;;17.40;99.90;;;;;;5064321;28;20042;-58
2021/04/26 10:12:40;;;;;;;2.08;1.55;;;17.20;99.90;;;;;;5062646;28;20032;-58
2021/04/26 10:15:07;;;;;;;1.75;1.45;;;17.40;99.90;;;;;;5063234;28;20035;-58
2021/04/26 10:17:36;;;;;;;2.60;1.38;;;17.60;99.90;;;;;;5064311;28;20028;-59
2021/04/26 10:20:03;;;;;;;2.25;1.63;;;17.60;99.90;;;;;;5064741;28;20163;-58
2021/04/26 10:22:39;;;;;;;2.75;1.67;;;17.50;99.90;;;;;;5062580;28;20399;-58
2021/04/26 10:25:09;;;;;;;2.88;1.90;;;17.60;99.90;;;;;;5067352;28;20178;-57
2021/04/26 10:27:41;;;;;;;3.40;2.10;;;17.50;99.90;;;;;;5065538;28;20524;-57
2021/04/26 10:30:07;;;;;;;2.05;1.67;;;17.60;99.90;;;;;;5055223;28;20027;-58
2021/04/26 10:32:53;;;;;;;1.52;1.20;;;17.70;99.90;;;;;;5064043;28;20056;-58
2021/04/26 10:35:19;;;;;;;1.70;1.52;;;17.60;99.90;;;;;;5066515;28;20390;-57
2021/04/26 10:37:45;;;;;;;2.15;1.50;;;17.70;99.90;;;;;;5066363;28;20036;-58
2021/04/26 10:40:21;;;;;;;1.80;1.58;;;17.80;99.90;;;;;;5066111;28;20078;-58
2021/04/26 10:42:54;;;;;;;2.45;1.55;;;17.90;99.90;;;;;;5068153;28;20523;-57
2021/04/26 10:45:26;;;;;;;1.98;1.42;;;18.10;99.90;;;;;;5070406;28;20024;-58
2021/04/26 10:48:05;;;;;;;1.88;1.23;;;18.10;99.90;;;;;;5069756;28;20025;-58
2021/04/26 10:50:32;;;;;;;1.17;0.98;;;17.80;99.90;;;;;;5067598;28;20418;-57
2021/04/26 10:52:59;;;;;;;1.20;1.10;;;17.80;99.90;;;;;;5066598;28;20122;-57
2021/04/26 10:55:25;;;;;;;1.73;1.30;;;17.90;99.90;;;;;;5069682;28;20028;-58
2021/04/26 10:57:55;;;;;;;1.15;1.05;;;17.80;99.90;;;;;;5069311;28;20165;-57
2021/04/26 11:00:27;;;;;;;1.42;1.10;;;17.80;99.90;;;;;;5048983;28;20025;-57
2021/04/26 11:03:11;;;;;;;3.33;1.25;;;17.90;99.90;;;;;;5059785;28;20032;-57
2021/04/26 11:05:38;;;;;;;1.25;1.00;;;17.90;99.90;;;;;;5067664;28;20031;-57
2021/04/26 11:08:10;;;;;;;1.42;1.02;;;18.00;99.90;;;;;;5071358;28;20057;-57
2021/04/26 11:10:40;;;;;;;1.10;1.00;;;18.00;99.90;;;;;;5084025;28;20043;-57
2021/04/26 11:13:31;;;;;;;1.35;1.20;;;18.20;99.90;;;;;;5087575;28;20103;-57
2021/04/26 11:16:21;;;;;;;2.30;1.30;;;18.30;99.90;;;;;;5088032;28;20023;-58
2021/04/26 11:19:04;;;;;;;2.65;1.45;;;18.50;99.90;;;;;;5088446;28;20036;-57
2021/04/26 11:21:44;;;;;;;2.28;1.70;;;18.40;99.90;;;;;;5070805;28;20531;-57
2021/04/26 11:24:32;;;;;;;1.98;1.50;;;18.40;99.90;;;;;;5067642;28;20502;-57
2021/04/26 11:27:10;;;;;;;3.00;2.00;;;18.50;99.90;;;;;;5056541;28;20029;-57
2021/04/26 11:29:56;;;;;;;2.67;2.10;;;18.60;99.90;;;;;;5065177;28;20066;-57
2021/04/26 11:32:25;;;;;;;3.63;2.15;;;17.90;99.90;;;;;;5064278;28;20084;-58
2021/04/26 11:34:53;;;;;;;2.15;1.67;;;17.60;99.90;;;;;;5063868;28;20510;-57
2021/04/26 11:37:23;;;;;;;2.63;2.40;;;17.90;99.90;;;;;;5061039;28;20435;-57
2021/04/26 11:39:53;;;;;;;2.17;1.95;;;18.00;99.90;;;;;;5059544;28;20116;-57
2021/04/26 11:42:22;;;;;;;3.20;2.03;;;18.30;99.90;;;;;;5067312;28;20021;-56
2021/04/26 11:44:50;;;;;;;3.65;1.67;;;18.20;99.90;;;;;;5067951;28;20411;-56
2021/04/26 11:47:18;;;;;;;3.50;2.35;;;18.40;99.90;;;;;;5068028;28;20487;-56
2021/04/26 11:49:47;;;;;;;6.30;2.25;;;17.90;99.90;;;;;;5066961;28;20445;-56
2021/04/26 11:52:16;;;;;;;3.60;2.25;;;17.90;99.90;;;;;;5067045;28;20138;-56
2021/04/26 11:54:47;;;;;;;3.83;2.70;;;17.60;99.90;;;;;;5065429;28;20487;-56
2021/04/26 11:57:23;;;;;;;2.47;2.20;;;17.50;99.90;;;;;;5064599;28;20387;-56
2021/04/26 12:00:00;;;;;;;2.97;2.42;;;17.60;99.90;;;;;;5068872;28;20047;-56
2021/04/26 12:02:37;;;;;;;2.70;2.10;;;17.70;99.90;;;;;;5067875;28;20029;-57
2021/04/26 12:05:12;;;;;;;3.25;1.90;;;17.70;99.90;;;;;;5068548;28;20440;-57
2021/04/26 12:07:38;;;;;;;2.63;1.88;;;17.80;99.90;;;;;;5067473;28;20021;-57
2021/04/26 12:10:25;;;;;;;2.95;2.10;;;17.90;99.90;;;;;;5067673;28;20040;-57
2021/04/26 12:12:56;;;;;;;2.25;1.83;;;17.90;99.90;;;;;;5068089;28;20052;-57
2021/04/26 12:15:24;;;;;;;3.95;2.00;;;18.20;99.90;;;;;;5068060;28;20029;-56
2021/04/26 12:17:57;;;;;;;2.15;1.92;;;18.50;99.90;;;;;;5068337;28;20099;-57
2021/04/26 12:20:24;;;;;;;2.63;1.90;;;18.40;99.90;;;;;;5067776;28;20112;-57
2021/04/26 12:22:52;;;;;;;1.85;1.67;;;18.10;99.90;;;;;;5079261;28;20024;-57
2021/04/26 12:25:19;;;;;;;2.33;1.95;;;18.30;99.90;;;;;;5067669;28;20032;-57
2021/04/26 12:27:45;;;;;;;2.55;1.70;;;18.50;99.90;;;;;;5067799;28;20025;-57
2021/04/26 12:30:23;;;;;;;1.83;1.58;;;18.70;99.90;;;;;;5065155;28;20040;-56
2021/04/26 12:32:50;;;;;;;2.15;1.42;;;18.90;99.90;;;;;;5064244;28;20013;-57
2021/04/26 12:35:27;;;;;;;2.38;1.88;;;18.70;99.90;;;;;;5062123;28;20036;-56
2021/04/26 12:37:55;;;;;;;2.47;2.15;;;18.80;99.90;;;;;;5052158;28;20067;-57
2021/04/26 12:40:33;;;;;;;2.55;1.95;;;18.60;99.90;;;;;;5065857;28;20032;-57
2021/04/26 12:43:01;;;;;;;3.25;2.10;;;18.40;99.90;;;;;;5065762;28;20020;-56
2021/04/26 12:45:39;;;;;;;3.75;2.58;;;18.30;99.90;;;;;;5065618;28;20019;-56
2021/04/26 12:48:06;;;;;;;2.30;1.80;;;18.30;99.90;;;;;;5066184;28;20514;-56
2021/04/26 12:50:38;;;;;;;3.28;2.40;;;18.60;99.90;;;;;;5064804;28;20557;-57
2021/04/26 12:53:27;;;;;;;2.92;2.50;;;18.10;99.90;;;;;;5065802;28;20028;-57
2021/04/26 12:56:11;;;;;;;1.95;1.70;;;17.80;99.90;;;;;;5066670;28;20043;-56
2021/04/26 12:58:42;;;;;;;3.17;2.20;;;18.10;99.90;;;;;;5064227;28;20031;-56